Time;durP1;ratioP1;P1;durP2;ratioP2;P2;SDS_P1;SDS_P2;PMS_P1;PMS_P2;Temp;Humidity;BMP_temperature;BMP_pressure;BME280_temperature;BME280_humidity;BME280_pressure;Samples;Min_cycle;Max_cycle;Signal;HPM_P1;HPM_P2
2023/07/11 00:01:16;;;;;;;4.53;2.70;;;20.10;92.10;;;20.14;62.56;101285.84;5033412;28;20696;-72
2023/07/11 00:03:47;;;;;;;6.30;2.90;;;20.10;91.90;;;20.17;62.80;101282.75;5033333;28;20187;-72
2023/07/11 00:06:22;;;;;;;6.17;2.57;;;20.10;92.30;;;20.11;62.54;101289.81;5033712;28;20284;-72
2023/07/11 00:08:54;;;;;;;4.67;2.67;;;20.10;92.00;;;19.99;63.13;101286.06;5033338;28;20676;-72
2023/07/11 00:11:27;;;;;;;5.33;2.90;;;19.90;92.20;;;19.93;63.60;101291.50;5033638;28;20193;-72
2023/07/11 00:13:59;;;;;;;5.17;2.73;;;19.80;92.60;;;19.96;63.56;101280.22;5033609;28;20290;-72
2023/07/11 00:16:31;;;;;;;5.60;2.90;;;19.90;92.70;;;19.91;63.61;101280.84;5033546;28;20223;-72
2023/07/11 00:19:04;;;;;;;5.87;2.93;;;19.90;92.80;;;19.86;63.85;101282.50;5033218;28;20708;-72
2023/07/11 00:21:36;;;;;;;4.97;3.23;;;19.80;92.90;;;19.82;63.74;101278.53;5033471;28;20584;-72
2023/07/11 00:24:10;;;;;;;7.03;3.13;;;19.80;92.90;;;19.82;63.66;101284.81;5033491;28;20277;-72
2023/07/11 00:26:43;;;;;;;3.43;2.70;;;19.80;92.90;;;19.73;64.43;101292.31;5033347;28;20317;-72
2023/07/11 00:29:22;;;;;;;3.57;2.40;;;19.70;93.10;;;19.70;64.46;101272.88;5033391;28;20254;-72
2023/07/11 00:31:53;;;;;;;4.90;2.80;;;19.60;93.30;;;19.67;63.97;101274.13;5033398;28;20614;-72
2023/07/11 00:34:25;;;;;;;5.67;2.80;;;19.70;93.30;;;19.61;64.30;101277.69;5033333;28;20227;-72
2023/07/11 00:36:57;;;;;;;4.33;2.97;;;19.60;93.40;;;19.57;64.43;101268.25;5033298;28;20211;-72
2023/07/11 00:39:34;;;;;;;5.23;2.60;;;19.60;93.40;;;19.51;64.78;101279.13;5033276;28;20343;-72
2023/07/11 00:42:10;;;;;;;4.67;2.67;;;19.50;93.80;;;19.48;65.06;101276.81;5033251;28;20298;-72
2023/07/11 00:44:55;;;;;;;3.23;2.67;;;19.40;93.90;;;19.49;64.98;101268.44;5032883;28;20724;-72
2023/07/11 00:47:28;;;;;;;4.30;3.00;;;19.50;93.90;;;19.46;65.17;101274.28;5033270;28;20201;-72
2023/07/11 00:50:07;;;;;;;4.97;3.00;;;19.50;93.90;;;19.37;65.22;101267.34;5033208;28;20222;-72
2023/07/11 00:52:41;;;;;;;5.47;3.10;;;19.30;94.30;;;19.38;65.28;101274.47;5033246;28;20183;-72
2023/07/11 00:55:16;;;;;;;5.87;3.13;;;19.40;94.40;;;19.39;65.28;101261.69;5033104;28;20276;-72
2023/07/11 00:57:49;;;;;;;7.37;3.00;;;19.40;94.20;;;19.43;65.17;101257.56;5033934;28;20194;-72
2023/07/11 01:00:22;;;;;;;4.77;2.90;;;19.50;94.30;;;19.32;65.85;101260.84;5032763;28;20639;-72
2023/07/11 01:02:54;;;;;;;5.97;3.20;;;19.40;94.40;;;19.25;66.45;101252.69;5033012;28;20215;-72
2023/07/11 01:05:26;;;;;;;4.27;2.77;;;19.30;94.50;;;19.25;66.13;101247.25;5033013;28;20223;-72
2023/07/11 01:07:58;;;;;;;5.03;3.30;;;19.30;94.80;;;19.29;65.96;101251.22;5032726;28;20199;-72
2023/07/11 01:10:29;;;;;;;6.27;3.00;;;19.30;94.90;;;19.30;66.19;101238.50;5033054;28;20195;-72
2023/07/11 01:13:06;;;;;;;5.97;3.07;;;19.40;94.90;;;19.19;66.65;101239.94;5033299;28;20282;-72
2023/07/11 01:15:38;;;;;;;4.77;2.87;;;19.20;95.00;;;19.30;65.88;101233.06;5034576;28;20229;-72
2023/07/11 01:18:11;;;;;;;6.70;2.97;;;19.40;94.90;;;19.31;65.78;101238.31;5036833;28;20294;-72
2023/07/11 01:20:43;;;;;;;3.97;2.97;;;19.40;94.70;;;19.21;65.93;101235.16;5036701;28;20209;-72
2023/07/11 01:23:16;;;;;;;5.63;3.00;;;19.30;94.80;;;19.25;65.81;101230.97;5036318;28;20742;-72
2023/07/11 01:25:49;;;;;;;3.70;2.93;;;19.30;94.90;;;19.17;65.59;101218.44;5036942;28;20261;-72
2023/07/11 01:28:21;;;;;;;5.43;3.13;;;19.20;94.90;;;19.14;65.81;101231.59;5036644;28;20282;-72
2023/07/11 01:30:53;;;;;;;6.70;3.30;;;19.10;95.00;;;19.16;65.86;101227.63;5036543;28;20644;-72
2023/07/11 01:33:26;;;;;;;3.40;2.70;;;19.20;95.00;;;19.15;65.99;101225.94;5036204;28;20245;-72
2023/07/11 01:35:59;;;;;;;4.03;2.80;;;19.20;94.90;;;19.02;66.34;101217.75;5036098;28;20234;-72
2023/07/11 01:38:32;;;;;;;3.77;2.63;;;19.10;95.10;;;19.05;66.09;101224.63;5036108;28;20191;-72
2023/07/11 01:41:04;;;;;;;4.53;2.90;;;19.20;95.20;;;19.07;66.03;101219.88;5036370;28;20218;-72
2023/07/11 01:43:36;;;;;;;4.73;2.77;;;19.20;95.00;;;19.07;66.10;101215.28;5035942;28;20217;-72
2023/07/11 01:46:08;;;;;;;5.00;3.00;;;19.20;95.10;;;19.04;65.81;101206.72;5036260;28;20227;-72
2023/07/11 01:48:41;;;;;;;5.27;2.63;;;19.20;95.00;;;19.00;66.46;101219.00;5036251;28;20223;-72
2023/07/11 01:51:13;;;;;;;4.17;2.70;;;19.10;95.30;;;19.00;66.17;101210.88;5036174;28;20281;-72
2023/07/11 01:53:46;;;;;;;6.07;2.87;;;19.10;95.30;;;18.91;66.74;101212.06;5036055;28;20282;-72
2023/07/11 01:56:18;;;;;;;7.47;2.93;;;19.00;95.50;;;18.85;66.47;101210.16;5036036;28;20317;-72
2023/07/11 01:58:49;;;;;;;4.17;2.70;;;18.90;95.60;;;18.72;67.30;101211.81;5035993;28;20197;-72
2023/07/11 02:01:21;;;;;;;4.80;3.20;;;18.80;95.90;;;18.60;67.30;101202.56;5035743;28;20683;-72
2023/07/11 02:03:53;;;;;;;5.03;3.20;;;18.70;96.00;;;18.65;67.77;101210.94;5035970;28;20193;-72
2023/07/11 02:06:25;;;;;;;5.73;2.80;;;18.70;96.30;;;18.63;67.46;101212.19;5035522;28;20233;-72
2023/07/11 02:09:02;;;;;;;5.20;3.40;;;18.70;96.30;;;18.54;67.97;101208.78;5035871;28;20274;-72
2023/07/11 02:11:34;;;;;;;4.63;3.10;;;18.60;96.30;;;18.49;67.95;101204.97;5035832;28;20197;-72
2023/07/11 02:14:06;;;;;;;5.40;3.40;;;18.50;96.40;;;18.42;68.42;101206.81;5035443;28;20741;-72
2023/07/11 02:16:37;;;;;;;6.00;3.03;;;18.40;96.80;;;18.39;68.59;101213.44;5035666;28;20230;-72
2023/07/11 02:19:09;;;;;;;5.33;3.53;;;18.50;96.90;;;18.37;68.69;101214.69;5035634;28;20195;-72
2023/07/11 02:21:41;;;;;;;5.70;3.23;;;18.40;96.80;;;18.40;68.23;101217.00;5035457;28;20672;-73
2023/07/11 02:24:17;;;;;;;6.00;3.70;;;18.50;96.80;;;18.41;68.57;101207.84;5035522;28;20187;-73
2023/07/11 02:26:50;;;;;;;4.50;3.20;;;18.50;96.70;;;18.41;68.59;101210.56;5035207;28;20232;-72
2023/07/11 02:29:22;;;;;;;4.87;3.27;;;18.50;96.80;;;18.41;68.14;101208.69;5035448;28;20205;-72
2023/07/11 02:31:54;;;;;;;5.33;3.93;;;18.60;96.60;;;18.40;67.95;101204.28;5035144;28;20677;-73
2023/07/11 02:34:26;;;;;;;5.20;3.70;;;18.50;96.50;;;18.36;68.24;101203.00;5035048;28;20280;-72
2023/07/11 02:37:00;;;;;;;5.63;3.60;;;18.50;96.70;;;18.27;68.92;101198.81;5036175;28;20198;-72
2023/07/11 02:39:33;;;;;;;4.30;3.63;;;18.40;97.00;;;18.33;68.62;101200.69;5035245;28;20202;-72
2023/07/11 02:42:09;;;;;;;5.53;3.30;;;18.60;97.10;;;18.31;67.99;101191.94;5034915;28;20672;-72
2023/07/11 02:44:41;;;;;;;6.07;3.40;;;18.50;96.80;;;18.31;68.64;101200.09;5035108;28;20274;-72
2023/07/11 02:47:12;;;;;;;6.47;3.50;;;18.50;96.90;;;18.33;68.51;101192.56;5034874;28;20187;-72
2023/07/11 02:49:44;;;;;;;5.03;3.70;;;18.50;96.90;;;18.29;68.24;101194.00;5035033;28;20191;-72
2023/07/11 02:52:58;;;;;;;9.23;4.13;;;18.50;96.80;;;18.15;68.52;101182.25;5035044;28;20217;-72
2023/07/11 02:55:32;;;;;;;7.77;3.87;;;18.30;97.10;;;18.15;68.82;101178.72;5035056;28;20231;-72
2023/07/11 02:58:03;;;;;;;5.17;3.70;;;18.20;97.40;;;18.12;69.08;101181.81;5034977;28;20191;-73
2023/07/11 03:00:36;;;;;;;5.73;3.77;;;18.30;97.70;;;18.10;68.95;101183.88;5035093;28;20192;-73
2023/07/11 03:03:08;;;;;;;8.83;3.70;;;18.20;97.40;;;18.04;69.57;101180.09;5034783;28;20207;-73
2023/07/11 03:05:45;;;;;;;5.27;4.03;;;18.20;97.50;;;18.00;69.15;101180.69;5034790;28;20229;-73
2023/07/11 03:08:18;;;;;;;5.93;3.90;;;18.10;97.60;;;17.90;69.99;101182.91;5035395;28;20195;-73
2023/07/11 03:10:52;;;;;;;7.70;4.00;;;18.10;97.80;;;17.89;69.91;101181.22;5034469;28;20643;-73
2023/07/11 03:13:23;;;;;;;6.00;4.07;;;18.00;97.90;;;17.90;70.18;101180.22;5034571;28;20183;-73
2023/07/11 03:15:55;;;;;;;8.13;4.03;;;18.10;97.90;;;17.88;70.19;101176.84;5034761;28;20245;-73
2023/07/11 03:18:27;;;;;;;6.83;4.33;;;18.10;98.00;;;17.80;70.26;101177.84;5034532;28;20188;-73
2023/07/11 03:21:03;;;;;;;6.77;4.27;;;17.90;98.20;;;17.83;70.27;101173.91;5034215;28;20732;-73
2023/07/11 03:23:35;;;;;;;6.93;3.80;;;17.90;98.20;;;17.86;70.26;101176.22;5034323;28;20210;-73
2023/07/11 03:26:08;;;;;;;4.90;3.90;;;18.10;98.10;;;17.80;70.23;101177.84;5034308;28;20233;-73
2023/07/11 03:28:38;;;;;;;5.70;3.77;;;18.00;98.10;;;17.80;70.73;101171.59;5034074;28;20642;-73
2023/07/11 03:31:10;;;;;;;5.97;3.67;;;18.00;98.20;;;17.77;69.80;101172.00;5034200;28;20207;-73
2023/07/11 03:33:42;;;;;;;6.13;3.80;;;17.90;98.00;;;17.72;70.29;101165.28;5034205;28;20257;-73
2023/07/11 03:36:14;;;;;;;4.73;3.20;;;17.90;98.30;;;17.71;70.63;101158.19;5033820;28;20234;-73
2023/07/11 03:38:46;;;;;;;9.07;4.03;;;17.90;98.20;;;17.71;70.35;101152.78;5033127;28;20716;-73
2023/07/11 03:41:19;;;;;;;8.67;3.67;;;17.90;98.30;;;17.62;70.88;101158.53;5034111;28;20234;-73
2023/07/11 03:43:51;;;;;;;7.20;3.57;;;17.80;98.50;;;17.60;70.55;101153.28;5033997;28;20302;-73
2023/07/11 03:46:23;;;;;;;5.47;3.80;;;17.80;98.50;;;17.51;71.83;101151.75;5034111;28;20281;-71
2023/07/11 03:48:59;;;;;;;9.80;3.67;;;17.70;99.40;;;17.47;72.51;101146.91;5033931;28;20191;-72
2023/07/11 03:51:31;;;;;;;7.33;3.63;;;17.60;99.40;;;17.44;72.37;101152.72;5033620;28;20225;-72
2023/07/11 03:54:03;;;;;;;6.90;3.87;;;17.50;99.70;;;17.38;72.62;101143.50;5033877;28;20187;-72
2023/07/11 03:56:36;;;;;;;7.03;3.40;;;17.50;99.90;;;17.38;72.94;101143.50;5033810;28;20228;-72
2023/07/11 03:59:09;;;;;;;5.10;3.70;;;17.50;99.90;;;17.33;73.78;101143.25;5033738;28;20752;-72
2023/07/11 04:01:40;;;;;;;8.07;3.80;;;17.50;99.90;;;17.36;73.77;101140.19;5033815;28;20621;-72
2023/07/11 04:04:12;;;;;;;6.43;3.70;;;17.50;99.90;;;17.36;73.40;101137.47;5033358;28;20731;-73
2023/07/11 04:06:45;;;;;;;7.40;3.73;;;17.50;99.90;;;17.40;73.73;101138.72;5033549;28;20318;-72
2023/07/11 04:09:19;;;;;;;7.27;3.53;;;17.60;99.90;;;17.39;73.42;101144.34;5033663;28;20229;-73
2023/07/11 04:11:52;;;;;;;5.13;3.77;;;17.60;99.90;;;17.34;73.69;101144.94;5033378;28;20226;-72
2023/07/11 04:14:25;;;;;;;7.00;4.00;;;17.50;99.90;;;17.29;74.04;101130.31;5033264;28;20191;-73
2023/07/11 04:16:57;;;;;;;6.63;3.70;;;17.50;99.90;;;17.27;73.62;101122.38;5033970;28;20274;-72
2023/07/11 04:19:29;;;;;;;5.53;3.20;;;17.40;99.90;;;17.24;74.12;101128.19;5034089;28;20266;-71
2023/07/11 04:22:01;;;;;;;12.17;3.67;;;17.40;99.90;;;17.19;74.65;101127.94;5033785;28;20607;-72
2023/07/11 04:24:33;;;;;;;8.70;3.30;;;17.40;99.90;;;17.21;75.20;101123.16;5033646;28;20250;-72
2023/07/11 04:27:06;;;;;;;9.77;3.37;;;17.40;99.90;;;17.29;74.15;101130.31;5034180;28;20194;-72
2023/07/11 04:29:38;;;;;;;5.70;3.37;;;17.50;99.90;;;17.28;74.41;101124.06;5033749;28;20191;-73
2023/07/11 04:32:10;;;;;;;4.70;3.63;;;17.50;99.90;;;17.31;74.88;101123.66;5033823;28;20199;-73
2023/07/11 04:34:42;;;;;;;8.03;3.40;;;17.50;99.90;;;17.33;74.49;101126.19;5033116;28;20250;-73
2023/07/11 04:37:14;;;;;;;6.70;3.37;;;17.50;99.90;;;17.30;74.54;101119.28;5033357;28;20274;-72
2023/07/11 04:39:46;;;;;;;6.73;3.73;;;17.50;99.90;;;17.25;74.25;101108.22;5033303;28;20238;-73
2023/07/11 04:42:19;;;;;;;6.30;3.37;;;17.50;99.90;;;17.28;75.18;101113.25;5033264;28;20554;-73
2023/07/11 04:44:51;;;;;;;5.90;3.20;;;17.50;99.90;;;17.28;74.94;101110.53;5033067;28;20265;-73
2023/07/11 04:47:23;;;;;;;6.23;3.10;;;17.50;99.90;;;17.26;74.46;101115.28;5033514;28;20286;-73
2023/07/11 04:49:55;;;;;;;5.17;3.17;;;17.50;99.90;;;17.30;74.48;101105.75;5035353;28;20187;-72
2023/07/11 04:52:27;;;;;;;7.20;3.30;;;17.50;99.90;;;17.30;74.20;101110.31;5037351;28;20281;-72
2023/07/11 04:54:59;;;;;;;12.67;3.87;;;17.50;99.90;;;17.26;75.01;101118.00;5037212;28;20638;-72
2023/07/11 04:57:32;;;;;;;9.20;3.40;;;17.50;99.90;;;17.30;74.73;101108.44;5036972;28;20641;-72
2023/07/11 05:00:07;;;;;;;10.10;3.23;;;17.60;99.90;;;17.30;74.53;101110.31;5036789;28;20562;-72
2023/07/11 05:02:38;;;;;;;12.40;3.80;;;17.50;99.90;;;17.28;74.53;101112.41;5037039;28;20281;-72
2023/07/11 05:05:11;;;;;;;13.00;3.60;;;17.50;99.90;;;17.27;74.85;101111.56;5036847;28;20242;-73
2023/07/11 05:07:41;;;;;;;10.77;3.40;;;17.50;99.90;;;17.33;74.80;101105.34;5036675;28;20214;-72
2023/07/11 05:10:12;;;;;;;8.33;3.67;;;17.60;99.90;;;17.36;75.50;101109.56;5036844;28;20217;-73
2023/07/11 05:12:46;;;;;;;12.77;3.60;;;17.60;99.90;;;17.41;75.55;101101.69;5036553;28;20221;-73
2023/07/11 05:15:18;;;;;;;13.10;3.90;;;17.70;99.90;;;17.46;75.52;101107.34;5036743;28;20226;-73
2023/07/11 05:17:50;;;;;;;8.70;3.30;;;17.70;99.90;;;17.48;75.81;101107.97;5036871;28;20187;-73
2023/07/11 05:20:21;;;;;;;10.63;3.43;;;17.80;99.90;;;17.51;75.72;101107.59;5036832;28;20278;-73
2023/07/11 05:22:55;;;;;;;12.23;4.33;;;17.80;99.90;;;17.55;75.98;101098.03;5036676;28;20218;-73
2023/07/11 05:25:26;;;;;;;12.07;4.40;;;17.90;99.90;;;17.57;75.94;101107.66;5036525;28;20237;-73
2023/07/11 05:28:00;;;;;;;9.40;3.57;;;17.90;99.90;;;17.61;76.11;101098.13;5036337;28;20195;-73
2023/07/11 05:30:32;;;;;;;8.33;3.60;;;17.90;99.90;;;17.63;76.51;101101.50;5037299;28;20290;-73
2023/07/11 05:33:04;;;;;;;8.37;3.70;;;18.00;99.90;;;17.69;76.92;101102.56;5036548;28;20195;-73
2023/07/11 05:35:45;;;;;;;9.37;3.43;;;18.00;99.90;;;17.70;76.12;101102.38;5036103;28;20231;-73
2023/07/11 05:38:16;;;;;;;5.63;2.87;;;18.00;99.90;;;17.74;75.05;101098.22;5036448;28;20298;-74
2023/07/11 05:40:47;;;;;;;7.77;3.57;;;18.10;99.90;;;17.80;76.34;101107.44;5036366;28;20195;-73
2023/07/11 05:43:20;;;;;;;8.33;3.97;;;18.20;99.90;;;17.84;76.88;101091.63;5036357;28;20191;-74
2023/07/11 05:45:53;;;;;;;6.67;3.40;;;18.20;99.90;;;17.88;76.82;101077.47;5035966;28;20235;-73
2023/07/11 05:48:24;;;;;;;9.60;3.50;;;18.30;99.90;;;17.92;77.58;101081.44;5036257;28;20195;-72
2023/07/11 05:51:05;;;;;;;9.67;3.80;;;18.30;99.90;;;17.97;77.05;101076.28;5035986;28;20290;-72
2023/07/11 05:53:37;;;;;;;6.87;3.20;;;18.40;99.90;;;18.01;76.83;101079.44;5036232;28;20227;-72
2023/07/11 05:56:10;;;;;;;6.80;3.43;;;18.40;99.90;;;18.04;76.53;101071.72;5036080;28;20329;-72
2023/07/11 05:58:44;;;;;;;9.80;3.10;;;18.40;99.90;;;18.10;77.05;101064.66;5036021;28;20195;-72
2023/07/11 06:01:21;;;;;;;10.20;3.90;;;18.50;99.90;;;18.14;76.70;101066.78;5035287;28;20230;-73
2023/07/11 06:04:05;;;;;;;10.33;3.47;;;18.60;99.90;;;18.20;76.95;101062.41;5036383;28;20222;-73
2023/07/11 06:06:42;;;;;;;7.37;3.37;;;18.60;99.90;;;18.26;77.12;101050.75;5035817;28;20231;-72
2023/07/11 06:09:18;;;;;;;8.40;3.10;;;18.70;99.90;;;18.31;76.20;101056.41;5036274;28;20183;-72
2023/07/11 06:11:51;;;;;;;9.37;3.17;;;18.80;99.90;;;18.37;76.30;101052.88;5035838;28;20285;-72
2023/07/11 06:14:24;;;;;;;6.03;3.00;;;18.90;99.90;;;18.45;77.72;101049.16;5035402;28;20657;-72
2023/07/11 06:16:56;;;;;;;9.43;3.27;;;18.90;99.90;;;18.51;76.08;101043.78;5035440;28;20241;-72
2023/07/11 06:19:28;;;;;;;8.40;3.37;;;19.00;99.90;;;18.56;75.94;101041.28;5035681;28;20282;-72
2023/07/11 06:22:00;;;;;;;9.43;3.33;;;19.10;99.90;;;18.64;75.68;101032.97;5035681;28;20187;-72
2023/07/11 06:24:32;;;;;;;6.80;3.30;;;19.20;99.90;;;18.74;74.44;101033.41;5035600;28;20214;-73
2023/07/11 06:27:04;;;;;;;8.53;3.13;;;19.20;99.90;;;18.79;74.64;101030.09;5035222;28;20195;-72
2023/07/11 06:29:37;;;;;;;6.53;2.83;;;19.30;99.90;;;18.89;73.58;101025.09;5035483;28;20278;-73
2023/07/11 06:32:09;;;;;;;8.53;3.30;;;19.40;99.90;;;18.95;74.18;101023.41;5035476;28;20291;-72
2023/07/11 06:34:41;;;;;;;11.20;3.40;;;19.40;99.90;;;19.03;73.60;101024.06;5035074;28;20207;-73
2023/07/11 06:37:13;;;;;;;6.90;2.70;;;19.50;99.90;;;19.11;73.11;101023.00;5035096;28;20642;-73
2023/07/11 06:39:47;;;;;;;9.73;3.27;;;19.60;99.90;;;19.16;73.97;101028.63;5035303;28;20285;-73
2023/07/11 06:42:20;;;;;;;9.07;3.20;;;19.70;99.90;;;19.24;73.04;101028.44;5035305;28;20219;-72
2023/07/11 06:44:53;;;;;;;8.87;2.83;;;19.80;99.70;;;19.29;73.81;101020.47;5035316;28;20241;-72
2023/07/11 06:47:25;;;;;;;4.83;2.80;;;19.80;99.90;;;19.34;72.70;101014.41;5034875;28;20237;-72
2023/07/11 06:49:57;;;;;;;6.07;3.03;;;19.90;99.50;;;19.45;71.36;101009.19;5035187;28;20220;-72
2023/07/11 06:52:29;;;;;;;4.77;2.70;;;20.00;99.00;;;19.54;70.34;101016.09;5035092;28;20215;-72
2023/07/11 06:55:01;;;;;;;4.17;2.50;;;20.10;98.20;;;19.57;69.25;101010.22;5034975;28;20317;-72
2023/07/11 06:57:34;;;;;;;5.43;2.60;;;20.20;97.70;;;19.78;67.55;101011.00;5035024;28;20278;-73
2023/07/11 07:00:09;;;;;;;4.30;2.47;;;20.20;97.10;;;19.83;67.00;101016.66;5034920;28;20274;-73
2023/07/11 07:02:41;;;;;;;5.77;2.83;;;20.30;96.60;;;19.91;67.84;101010.97;5034919;28;20201;-73
2023/07/11 07:05:14;;;;;;;4.37;2.50;;;20.50;96.80;;;19.94;67.74;101015.97;5034728;28;20234;-73
2023/07/11 07:07:46;;;;;;;5.77;2.70;;;20.50;96.60;;;19.95;67.74;101004.06;5034491;28;20648;-73
2023/07/11 07:10:20;;;;;;;3.57;2.53;;;20.50;96.80;;;20.03;67.63;101010.09;5034441;28;20195;-63
2023/07/11 07:12:52;;;;;;;7.77;2.60;;;20.50;96.90;;;20.07;68.38;101010.47;5033755;28;20191;-72
2023/07/11 07:15:25;;;;;;;5.97;3.00;;;20.60;97.50;;;20.14;67.43;101006.69;5034863;28;20277;-73
2023/07/11 07:17:57;;;;;;;7.10;2.80;;;20.70;96.60;;;20.25;66.24;101005.16;5034752;28;20274;-73
2023/07/11 07:20:29;;;;;;;5.83;3.07;;;20.80;95.80;;;20.36;65.68;100999.09;5034388;28;20559;-73
2023/07/11 07:23:01;;;;;;;4.87;2.60;;;20.90;95.60;;;20.43;65.53;100989.00;5034597;28;20653;-72
2023/07/11 07:25:33;;;;;;;5.00;2.63;;;20.90;95.60;;;20.50;66.56;100984.34;5034542;28;20322;-72
2023/07/11 07:28:04;;;;;;;6.10;2.97;;;21.10;96.00;;;20.56;66.93;100979.91;5034464;28;20218;-72
2023/07/11 07:30:37;;;;;;;4.90;2.50;;;21.20;96.10;;;20.69;65.94;100977.94;5034397;28;20195;-72
2023/07/11 07:33:09;;;;;;;6.43;2.50;;;21.20;95.80;;;20.70;66.97;100974.16;5034093;28;20554;-72
2023/07/11 07:35:42;;;;;;;6.17;2.40;;;21.30;96.00;;;20.91;65.39;100983.84;5033897;28;20321;-72
2023/07/11 07:38:15;;;;;;;4.53;2.87;;;21.50;95.20;;;20.96;64.86;100977.75;5034264;28;20187;-72
2023/07/11 07:40:52;;;;;;;5.37;2.70;;;21.60;94.90;;;21.15;64.34;100987.66;5034202;28;20281;-73
2023/07/11 07:43:25;;;;;;;5.17;2.70;;;21.70;95.00;;;21.15;64.70;100984.91;5033862;28;20187;-73
2023/07/11 07:46:03;;;;;;;5.10;2.57;;;21.80;95.10;;;21.32;64.18;100982.44;5086836;27;20921;-75
2023/07/11 07:48:32;;;;;;;4.30;2.40;;;21.80;94.40;;;21.32;64.08;100972.41;5066204;28;20220;-75
2023/07/11 07:51:10;;;;;;;8.03;3.10;;;21.90;94.60;;;21.43;62.62;100971.66;5044857;28;20250;-74
2023/07/11 07:53:39;;;;;;;3.77;2.70;;;22.00;93.80;;;21.53;62.14;100971.97;5026839;28;20257;-74
2023/07/11 07:56:14;;;;;;;7.00;2.90;;;22.10;93.50;;;21.58;62.58;100963.09;5029307;28;20234;-75
2023/07/11 07:58:42;;;;;;;5.97;2.80;;;22.10;93.50;;;21.81;61.96;100966.00;5027045;28;20305;-76
2023/07/11 08:01:20;;;;;;;5.93;2.97;;;22.40;93.30;;;21.77;62.66;100961.22;5029508;28;20218;-76
2023/07/11 08:03:49;;;;;;;7.07;3.00;;;22.30;93.50;;;21.95;61.00;100950.34;5047038;28;20197;-76
2023/07/11 08:06:19;;;;;;;7.27;3.43;;;22.40;93.00;;;21.99;62.24;100956.97;5046141;28;20209;-76
2023/07/11 08:08:49;;;;;;;6.30;2.70;;;22.60;93.10;;;22.05;62.57;100945.16;5046568;28;20207;-77
2023/07/11 08:11:25;;;;;;;6.07;3.20;;;22.50;93.30;;;22.06;63.63;100953.09;5038992;28;20234;-77
2023/07/11 08:13:53;;;;;;;4.73;3.10;;;22.60;94.60;;;22.40;59.95;100931.66;5043942;28;20426;-77
2023/07/11 08:16:36;;;;;;;6.40;2.80;;;22.80;92.70;;;22.43;62.56;100929.25;5046179;28;20553;-77
2023/07/11 08:19:08;;;;;;;4.60;2.90;;;23.10;93.40;;;22.57;59.82;100928.00;5045415;28;20286;-74
2023/07/11 08:21:38;;;;;;;5.40;3.17;;;23.10;92.60;;;22.67;60.16;100928.28;5046507;28;20309;-74
2023/07/11 08:24:10;;;;;;;7.30;3.00;;;23.20;91.90;;;22.67;61.22;100927.47;5038364;28;20214;-74
2023/07/11 08:26:42;;;;;;;4.80;2.90;;;23.20;92.50;;;22.70;60.89;100922.38;5044736;28;20725;-74
2023/07/11 08:29:12;;;;;;;5.30;3.03;;;23.20;92.90;;;22.97;58.57;100924.66;5026988;28;20253;-74
2023/07/11 08:32:01;;;;;;;6.20;3.10;;;23.40;91.30;;;22.94;60.64;100916.94;5026111;28;20231;-74
2023/07/11 08:34:32;;;;;;;5.27;3.10;;;23.40;92.60;;;23.07;58.64;100916.69;5036109;28;20628;-74
2023/07/11 08:37:01;;;;;;;5.33;2.93;;;23.60;91.20;;;23.13;59.25;100916.56;5043147;28;20253;-72
2023/07/11 08:39:29;;;;;;;9.23;3.40;;;23.60;91.30;;;23.39;57.15;100917.16;5045592;28;20288;-74
2023/07/11 08:42:06;;;;;;;5.40;2.93;;;23.90;90.30;;;23.40;57.03;100908.69;5045066;28;20351;-75
2023/07/11 08:44:40;;;;;;;4.63;2.93;;;23.90;90.40;;;23.53;56.98;100911.19;5045002;28;20240;-74
2023/07/11 08:47:19;;;;;;;10.87;3.83;;;23.90;89.90;;;23.57;57.42;100911.53;5045536;28;20568;-75
2023/07/11 08:49:56;;;;;;;4.17;3.07;;;24.10;90.00;;;23.84;56.38;100906.34;5046232;28;20608;-74
2023/07/11 08:52:29;;;;;;;3.77;2.90;;;24.10;90.00;;;23.79;57.97;100898.06;5046036;28;20218;-74
2023/07/11 08:55:10;;;;;;;5.87;3.50;;;24.30;90.30;;;24.22;53.65;100899.19;5045340;28;20226;-74
2023/07/11 08:57:45;;;;;;;7.00;3.33;;;24.60;85.80;;;24.09;56.89;100898.63;5032316;28;20210;-74
2023/07/11 09:00:19;;;;;;;5.07;3.10;;;24.50;89.30;;;24.06;56.61;100890.94;5032759;28;20630;-74
2023/07/11 09:02:59;;;;;;;5.53;3.63;;;24.50;89.10;;;24.07;56.78;100892.59;5032292;28;20690;-73
2023/07/11 09:05:40;;;;;;;4.57;3.30;;;24.50;89.70;;;24.10;57.29;100876.53;5032561;28;20258;-74
2023/07/11 09:08:16;;;;;;;5.13;3.13;;;24.50;89.70;;;24.22;56.28;100879.22;5032353;28;20658;-74
2023/07/11 09:11:02;;;;;;;4.93;3.20;;;24.60;89.10;;;24.29;57.17;100877.16;5032593;28;20202;-75
2023/07/11 09:13:57;;;;;;;5.03;3.37;;;24.70;89.40;;;24.35;57.33;100870.69;5032030;28;20207;-74
2023/07/11 09:16:38;;;;;;;6.60;3.67;;;24.80;90.00;;;24.46;56.10;100869.78;5025467;28;20305;-74
2023/07/11 09:19:42;;;;;;;4.27;3.30;;;24.90;88.70;;;24.59;56.63;100865.91;5032326;28;20682;-74
2023/07/11 09:22:26;;;;;;;5.30;3.50;;;25.00;88.50;;;24.72;53.52;100866.41;5031989;28;20713;-74
2023/07/11 09:25:13;;;;;;;3.90;2.90;;;25.20;85.70;;;24.87;52.27;100867.72;5026485;28;20325;-74
2023/07/11 09:27:48;;;;;;;5.05;3.53;;;25.30;83.10;;;25.07;52.20;100859.81;5023332;28;20290;-74
2023/07/11 09:30:31;;;;;;;4.70;3.40;;;25.50;82.60;;;25.33;51.30;100863.72;5031779;28;20237;-74
2023/07/11 09:33:19;;;;;;;7.32;3.42;;;25.70;82.20;;;25.27;52.26;100854.59;5031534;28;20702;-74
2023/07/11 09:35:51;;;;;;;4.35;3.38;;;25.70;82.40;;;25.26;53.13;100861.16;5029816;28;20200;-74
2023/07/11 09:38:29;;;;;;;4.15;3.33;;;25.60;83.70;;;25.48;51.43;100858.44;5031899;28;20258;-75
2023/07/11 09:41:09;;;;;;;3.35;3.00;;;25.80;82.60;;;25.66;52.35;100847.16;5031826;28;20673;-74
2023/07/11 09:43:43;;;;;;;4.38;3.72;;;26.10;82.60;;;25.65;51.32;100845.50;5031384;28;20671;-74
2023/07/11 09:46:17;;;;;;;5.20;3.33;;;26.10;82.40;;;25.70;50.19;100846.38;5031502;28;20292;-74
2023/07/11 09:48:51;;;;;;;7.43;3.15;;;26.10;79.70;;;25.86;48.56;100832.84;5031622;28;20210;-74
2023/07/11 09:51:36;;;;;;;3.70;3.38;;;26.20;77.60;;;25.91;47.30;100832.88;5031763;28;20254;-74
2023/07/11 09:54:17;;;;;;;3.38;3.05;;;26.30;75.30;;;25.93;48.39;100833.44;5031027;28;20276;-74
2023/07/11 09:56:50;;;;;;;5.00;3.13;;;26.30;77.20;;;26.07;48.11;100834.69;5030890;28;20682;-74
2023/07/11 09:59:28;;;;;;;3.55;3.22;;;26.40;76.60;;;26.21;46.08;100827.72;5031840;28;20257;-74
2023/07/11 10:01:58;;;;;;;4.90;3.03;;;26.50;73.50;;;26.23;47.61;100822.81;5031266;28;20218;-75
2023/07/11 10:04:28;;;;;;;3.75;3.08;;;26.60;75.30;;;26.31;48.10;100818.72;5031514;28;20206;-74
2023/07/11 10:07:02;;;;;;;6.50;3.38;;;26.70;75.20;;;26.60;44.89;100822.81;5030892;28;20227;-74
2023/07/11 10:09:36;;;;;;;5.75;3.20;;;26.80;71.80;;;26.56;45.80;100818.94;5030484;28;20658;-74
2023/07/11 10:12:17;;;;;;;6.45;3.42;;;26.90;73.00;;;26.64;46.41;100811.03;5031292;28;20234;-74
2023/07/11 10:14:55;;;;;;;5.20;3.60;;;27.00;73.70;;;26.77;45.94;100801.50;5031074;28;20235;-74
2023/07/11 10:17:33;;;;;;;6.63;4.38;;;27.20;72.80;;;26.93;44.49;100814.28;5030948;28;20654;-74
2023/07/11 10:20:09;;;;;;;6.50;3.78;;;27.30;71.80;;;27.02;45.04;100814.59;5031350;28;20218;-74
2023/07/11 10:22:52;;;;;;;6.70;3.85;;;27.40;71.40;;;27.07;46.00;100798.13;5031037;28;20231;-74
2023/07/11 10:25:27;;;;;;;4.20;3.58;;;27.40;71.80;;;27.26;45.38;100798.50;5031235;28;20661;-74
2023/07/11 10:28:06;;;;;;;3.92;3.53;;;27.60;70.90;;;27.28;46.41;100791.63;5031103;28;20715;-74
2023/07/11 10:30:39;;;;;;;4.40;4.00;;;27.60;72.00;;;27.34;45.05;100785.03;5030898;28;20636;-74
2023/07/11 10:33:20;;;;;;;5.95;3.70;;;27.70;70.90;;;27.37;45.07;100790.00;5030874;28;20214;-73
2023/07/11 10:36:19;;;;;;;5.40;3.85;;;27.60;70.00;;;27.46;44.37;100784.84;5029800;28;20215;-74
2023/07/11 10:38:59;;;;;;;5.38;4.10;;;26.30;68.80;;;27.69;42.24;100787.94;5011674;28;20550;-74
2023/07/11 10:41:43;;;;;;;6.95;4.07;;;27.80;67.70;;;27.91;40.54;100784.13;5010797;28;20310;-74